createdAt,value
2023-12-09T00:01:42.199Z,5.46
2023-12-09T00:04:09.990Z,5.42
2023-12-09T00:06:38.262Z,5.47
2023-12-09T00:09:06.271Z,5.47
2023-12-09T00:11:35.677Z,5.42
2023-12-09T00:14:05.472Z,5.49
2023-12-09T00:16:33.373Z,5.54
2023-12-09T00:19:01.407Z,5.35
2023-12-09T00:21:29.601Z,5.48
2023-12-09T00:23:58.750Z,5.41
2023-12-09T00:26:26.591Z,5.44
2023-12-09T00:28:56.038Z,5.36
2023-12-09T00:31:23.790Z,5.35
2023-12-09T00:33:51.596Z,5.33
2023-12-09T00:36:19.476Z,5.29
2023-12-09T00:38:47.268Z,5.31
2023-12-09T00:41:15.246Z,5.28
2023-12-09T00:43:43.051Z,5.20
2023-12-09T00:46:12.287Z,5.20
2023-12-09T00:48:40.278Z,5.18
2023-12-09T00:51:08.738Z,5.08
2023-12-09T00:53:36.629Z,5.03
2023-12-09T00:56:04.603Z,5.11
2023-12-09T00:58:32.375Z,4.97
2023-12-09T01:01:00.250Z,5.00
2023-12-09T01:03:29.583Z,5.03
2023-12-09T01:05:57.488Z,4.95
2023-12-09T01:08:26.926Z,4.78
2023-12-09T01:10:54.949Z,4.79
2023-12-09T01:13:22.744Z,4.71
2023-12-09T01:15:50.513Z,4.68
2023-12-09T01:18:18.385Z,4.71
2023-12-09T01:20:47.555Z,4.63
2023-12-09T01:23:15.305Z,4.70
2023-12-09T01:25:43.080Z,4.77
2023-12-09T01:28:10.856Z,4.67
2023-12-09T01:30:38.707Z,4.71
2023-12-09T01:33:06.825Z,4.81
2023-12-09T01:35:34.824Z,4.74
2023-12-09T01:38:04.482Z,4.76
2023-12-09T01:40:32.291Z,4.75
2023-12-09T01:43:00.052Z,4.77
2023-12-09T01:45:30.246Z,4.81
2023-12-09T01:47:58.131Z,4.72
2023-12-09T01:50:26.074Z,4.85
2023-12-09T01:52:54.168Z,4.77
2023-12-09T01:55:23.554Z,4.78
2023-12-09T01:57:52.564Z,4.84
2023-12-09T02:00:22.299Z,4.78
2023-12-09T02:02:50.633Z,4.78
2023-12-09T02:05:18.891Z,4.75
2023-12-09T02:07:46.717Z,4.89
2023-12-09T02:10:14.537Z,4.91
2023-12-09T02:12:51.700Z,4.96
2023-12-09T02:15:26.340Z,4.90
2023-12-09T02:17:58.484Z,4.97
2023-12-09T02:20:27.175Z,4.80
2023-12-09T02:23:05.909Z,4.83
2023-12-09T02:25:33.771Z,4.75
2023-12-09T02:28:04.853Z,4.93
2023-12-09T02:30:41.341Z,4.87
2023-12-09T02:33:12.453Z,4.85
2023-12-09T02:35:45.178Z,4.81
2023-12-09T02:38:16.871Z,4.72
2023-12-09T02:40:45.327Z,4.77
2023-12-09T02:43:13.537Z,4.84
2023-12-09T02:45:41.842Z,4.71
2023-12-09T02:48:09.899Z,4.75
2023-12-09T02:50:38.026Z,4.81
2023-12-09T02:53:06.025Z,4.83
2023-12-09T02:55:35.110Z,4.89
2023-12-09T02:58:02.862Z,4.73
2023-12-09T03:00:30.661Z,4.82
2023-12-09T03:02:58.596Z,4.78
2023-12-09T03:05:26.572Z,4.81
2023-12-09T03:07:54.348Z,4.80
2023-12-09T03:10:22.091Z,4.72
2023-12-09T03:12:51.154Z,4.82
2023-12-09T03:15:19.043Z,4.72
2023-12-09T03:17:47.027Z,4.85
2023-12-09T03:20:14.914Z,4.80
2023-12-09T03:22:42.644Z,4.83
2023-12-09T03:25:10.743Z,4.79
2023-12-09T03:27:38.532Z,4.77
2023-12-09T03:30:09.627Z,4.82
2023-12-09T03:32:40.307Z,4.97
2023-12-09T03:35:11.032Z,4.83
2023-12-09T03:37:38.847Z,4.94
2023-12-09T03:40:07.873Z,4.96
2023-12-09T03:42:35.701Z,4.89
2023-12-09T03:45:03.592Z,4.98
2023-12-09T03:47:32.724Z,4.91
2023-12-09T03:50:00.519Z,4.98
2023-12-09T03:52:28.928Z,4.95
2023-12-09T03:54:56.950Z,5.02
2023-12-09T03:57:24.930Z,4.96
2023-12-09T03:59:53.004Z,4.88
2023-12-09T04:02:21.056Z,4.99
2023-12-09T04:04:50.201Z,5.11
2023-12-09T04:07:18.291Z,5.09
2023-12-09T04:09:46.011Z,5.04
2023-12-09T04:12:13.822Z,5.01
2023-12-09T04:14:42.431Z,5.02
2023-12-09T04:17:10.135Z,5.04
2023-12-09T04:19:38.123Z,4.96
2023-12-09T04:22:07.789Z,5.04
2023-12-09T04:24:35.661Z,4.88
2023-12-09T04:27:03.508Z,5.01
2023-12-09T04:29:31.432Z,5.04
2023-12-09T04:32:00.166Z,4.98
2023-12-09T04:34:28.112Z,4.97
2023-12-09T04:36:56.016Z,5.09
2023-12-09T04:39:25.090Z,4.98
2023-12-09T04:41:52.888Z,4.97
2023-12-09T04:44:20.673Z,4.87
2023-12-09T04:46:48.426Z,4.85
2023-12-09T04:49:16.341Z,4.80
2023-12-09T04:51:44.254Z,4.77
2023-12-09T04:54:12.098Z,4.67
2023-12-09T04:56:41.172Z,4.67
2023-12-09T04:59:09.901Z,4.70
2023-12-09T05:01:37.662Z,4.70
2023-12-09T05:04:05.973Z,4.66
2023-12-09T05:06:33.773Z,4.69
2023-12-09T05:09:01.638Z,4.71
2023-12-09T05:11:29.366Z,4.76
2023-12-09T05:13:58.496Z,4.83
2023-12-09T05:16:26.980Z,4.85
2023-12-09T05:18:55.199Z,4.83
2023-12-09T05:21:23.309Z,4.83
2023-12-09T05:24:03.939Z,4.74
2023-12-09T05:26:31.731Z,4.75
2023-12-09T05:29:00.901Z,4.78
2023-12-09T05:31:28.632Z,4.75
2023-12-09T05:33:56.644Z,4.81
2023-12-09T05:36:24.464Z,4.74
2023-12-09T05:38:52.210Z,4.87
2023-12-09T05:41:19.929Z,4.85
2023-12-09T05:43:47.661Z,4.81
2023-12-09T05:46:20.674Z,4.76
2023-12-09T05:48:49.018Z,4.75
2023-12-09T05:51:17.077Z,4.74
2023-12-09T05:53:44.955Z,4.73
2023-12-09T05:56:13.730Z,4.61
2023-12-09T05:58:41.660Z,4.60
2023-12-09T06:01:10.256Z,4.52
2023-12-09T06:03:39.721Z,4.55
2023-12-09T06:06:06.946Z,4.47
2023-12-09T06:08:34.996Z,4.48
2023-12-09T06:11:02.887Z,4.43
2023-12-09T06:13:31.253Z,4.48
2023-12-09T06:15:58.968Z,4.35
2023-12-09T06:18:27.213Z,4.36
2023-12-09T06:20:56.384Z,4.38
2023-12-09T06:23:24.148Z,4.36
2023-12-09T06:25:51.907Z,4.33
2023-12-09T06:28:19.645Z,4.31
2023-12-09T06:30:47.645Z,4.23
2023-12-09T06:33:16.917Z,4.32
2023-12-09T06:35:47.751Z,4.20
2023-12-09T06:38:16.829Z,4.31
2023-12-09T06:40:44.888Z,4.41
2023-12-09T06:43:12.611Z,4.39
2023-12-09T06:45:43.433Z,4.45
2023-12-09T06:48:11.408Z,4.59
2023-12-09T06:50:39.199Z,4.64
2023-12-09T06:53:07.759Z,4.73
2023-12-09T06:55:36.912Z,4.70
2023-12-09T06:58:04.667Z,4.65
2023-12-09T07:00:32.494Z,4.67
2023-12-09T07:03:01.124Z,4.64
2023-12-09T07:05:29.143Z,4.59
2023-12-09T07:07:56.919Z,4.59
2023-12-09T07:10:24.647Z,4.44
2023-12-09T07:12:53.838Z,4.56
2023-12-09T07:15:21.693Z,4.46
2023-12-09T07:17:49.640Z,4.55
2023-12-09T07:20:17.519Z,4.41
2023-12-09T07:22:45.485Z,4.45
2023-12-09T07:25:13.371Z,4.40
2023-12-09T07:27:41.148Z,4.45
2023-12-09T07:30:11.179Z,4.49
2023-12-09T07:32:39.050Z,4.40
2023-12-09T07:35:07.572Z,4.34
2023-12-09T07:37:35.319Z,4.42
2023-12-09T07:40:05.841Z,4.36
2023-12-09T07:42:33.730Z,4.31
2023-12-09T07:45:01.532Z,4.39
2023-12-09T07:47:31.081Z,4.45
2023-12-09T07:49:58.852Z,4.45
2023-12-09T07:52:27.036Z,4.45
2023-12-09T07:54:55.241Z,4.49
2023-12-09T07:57:23.100Z,4.51
2023-12-09T07:59:50.950Z,4.66
2023-12-09T08:02:18.762Z,4.65
2023-12-09T08:04:47.850Z,4.58
2023-12-09T08:07:15.589Z,4.60
2023-12-09T08:09:43.464Z,4.66
2023-12-09T08:12:12.927Z,4.60
2023-12-09T08:14:40.770Z,4.61
2023-12-09T08:17:08.490Z,4.70
2023-12-09T08:19:36.360Z,4.98
2023-12-09T08:22:05.859Z,5.26
2023-12-09T08:24:33.662Z,5.21
2023-12-09T08:27:01.464Z,5.12
2023-12-09T08:29:29.957Z,5.23
2023-12-09T08:31:58.703Z,5.42
2023-12-09T08:34:26.672Z,5.61
2023-12-09T08:36:54.539Z,5.30
2023-12-09T08:39:24.462Z,5.52
2023-12-09T08:41:52.262Z,5.55
2023-12-09T08:44:20.041Z,5.79
2023-12-09T08:46:47.780Z,6.26
2023-12-09T08:49:15.651Z,7.05
2023-12-09T08:51:46.876Z,7.25
2023-12-09T08:54:15.582Z,7.22
2023-12-09T08:56:44.691Z,7.84
2023-12-09T08:59:12.613Z,8.07
2023-12-09T09:01:40.821Z,8.25
2023-12-09T09:04:08.732Z,8.64
2023-12-09T09:06:36.559Z,9.14
2023-12-09T09:09:05.566Z,9.46
2023-12-09T09:11:33.330Z,11.89
2023-12-09T09:14:02.427Z,14.60
2023-12-09T09:16:30.187Z,16.07
2023-12-09T09:18:58.390Z,16.98
2023-12-09T09:21:26.300Z,16.44
2023-12-09T09:23:54.093Z,15.38
2023-12-09T09:26:22.937Z,12.85
2023-12-09T09:28:50.817Z,10.76
2023-12-09T09:31:20.007Z,10.25
2023-12-09T09:33:47.916Z,8.87
2023-12-09T09:36:18.093Z,8.05
2023-12-09T09:38:46.022Z,8.18
2023-12-09T09:41:19.500Z,7.68
2023-12-09T09:43:49.678Z,7.40
2023-12-09T09:46:21.152Z,7.00
2023-12-09T09:48:54.223Z,6.85
2023-12-09T09:51:27.850Z,6.90
2023-12-09T09:54:07.457Z,6.80
2023-12-09T09:56:36.433Z,6.55
2023-12-09T09:59:08.000Z,6.59
2023-12-09T10:01:38.421Z,6.69
2023-12-09T10:04:07.911Z,6.72
2023-12-09T10:06:37.349Z,6.61
2023-12-09T10:09:05.737Z,6.69
2023-12-09T10:11:34.002Z,6.45
2023-12-09T10:14:01.791Z,6.45
2023-12-09T10:16:29.524Z,6.29
2023-12-09T10:18:58.698Z,6.28
2023-12-09T10:21:27.915Z,6.34
2023-12-09T10:23:55.648Z,6.42
2023-12-09T10:26:23.847Z,6.48
2023-12-09T10:28:52.014Z,6.60
2023-12-09T10:31:20.026Z,6.62
2023-12-09T10:33:48.068Z,6.59
2023-12-09T10:36:16.251Z,6.71
2023-12-09T10:38:45.556Z,6.74
2023-12-09T10:41:14.777Z,6.89
2023-12-09T10:43:42.965Z,6.94
2023-12-09T10:46:10.930Z,7.20
2023-12-09T10:48:38.944Z,7.70
2023-12-09T10:51:06.975Z,7.98
2023-12-09T10:53:34.738Z,8.22
2023-12-09T10:56:04.551Z,8.67
2023-12-09T10:58:35.110Z,8.64
2023-12-09T11:01:05.164Z,8.40
2023-12-09T11:03:34.445Z,8.42
2023-12-09T11:06:07.088Z,8.87
2023-12-09T11:08:37.924Z,8.97
2023-12-09T11:11:09.288Z,9.37
2023-12-09T11:13:37.575Z,9.67
2023-12-09T11:16:13.305Z,9.96
2023-12-09T11:18:50.259Z,10.18
2023-12-09T11:21:19.039Z,10.06
2023-12-09T11:23:50.105Z,9.55
2023-12-09T11:26:20.868Z,9.42
2023-12-09T11:29:05.530Z,9.15
2023-12-09T11:31:35.194Z,8.84
2023-12-09T11:34:03.526Z,8.84
2023-12-09T11:36:36.766Z,8.95
2023-12-09T11:39:07.777Z,9.26
2023-12-09T11:41:37.146Z,9.80
2023-12-09T11:44:05.867Z,9.92
2023-12-09T11:46:34.431Z,9.58
2023-12-09T11:49:04.138Z,9.55
2023-12-09T11:51:33.642Z,9.42
2023-12-09T11:54:02.916Z,9.46
2023-12-09T11:56:30.785Z,9.37
2023-12-09T11:59:00.623Z,9.19
2023-12-09T12:01:30.431Z,9.02
2023-12-09T12:03:58.334Z,9.00
2023-12-09T12:06:26.348Z,8.90
2023-12-09T12:08:55.738Z,8.55
2023-12-09T12:11:25.601Z,8.72
2023-12-09T12:13:54.727Z,9.09
2023-12-09T12:16:24.389Z,9.14
2023-12-09T12:18:52.265Z,8.99
2023-12-09T12:21:20.819Z,9.16
2023-12-09T12:23:52.792Z,9.31
2023-12-09T12:26:20.851Z,9.48
2023-12-09T12:28:49.904Z,9.54
2023-12-09T12:31:17.913Z,9.32
2023-12-09T12:33:47.284Z,9.53
2023-12-09T12:36:15.458Z,9.44
2023-12-09T12:38:43.357Z,9.22
2023-12-09T12:41:11.189Z,8.99
2023-12-09T12:43:39.048Z,8.75
2023-12-09T12:46:08.026Z,8.37
2023-12-09T12:48:35.981Z,8.18
2023-12-09T12:51:05.309Z,7.81
2023-12-09T12:53:33.306Z,7.96
2023-12-09T12:56:01.208Z,8.21
2023-12-09T12:58:30.588Z,7.92
2023-12-09T13:00:58.515Z,8.00
2023-12-09T13:03:26.776Z,7.98
2023-12-09T13:05:54.722Z,8.02
2023-12-09T13:08:23.899Z,8.24
2023-12-09T13:10:51.724Z,8.26
2023-12-09T13:13:19.559Z,8.22
2023-12-09T13:15:47.533Z,7.94
2023-12-09T13:18:15.713Z,7.98
2023-12-09T13:20:46.603Z,7.90
2023-12-09T13:23:14.631Z,7.61
2023-12-09T13:25:44.124Z,7.73
2023-12-09T13:28:12.086Z,7.39
2023-12-09T13:30:40.228Z,7.53
2023-12-09T13:33:08.181Z,7.43
2023-12-09T13:35:36.136Z,7.23
2023-12-09T13:38:05.117Z,7.13
2023-12-09T13:40:33.060Z,7.15
2023-12-09T13:43:02.252Z,7.13
2023-12-09T13:45:36.888Z,7.08
2023-12-09T13:48:05.941Z,6.97
2023-12-09T13:50:35.627Z,7.04
2023-12-09T13:53:04.476Z,6.91
2023-12-09T13:55:32.291Z,6.93
2023-12-09T13:58:00.128Z,6.83
2023-12-09T14:00:29.371Z,6.85
2023-12-09T14:02:58.301Z,6.83
2023-12-09T14:05:26.399Z,6.83
2023-12-09T14:07:55.295Z,6.87
2023-12-09T14:10:23.655Z,6.77
2023-12-09T14:12:51.563Z,6.81
2023-12-09T14:15:19.489Z,6.89
2023-12-09T14:17:49.113Z,6.86
2023-12-09T14:20:17.426Z,6.89
2023-12-09T14:22:46.662Z,6.85
2023-12-09T14:25:15.051Z,6.79
2023-12-09T14:27:43.077Z,6.82
2023-12-09T14:30:12.548Z,6.77
2023-12-09T14:32:44.914Z,6.77
2023-12-09T14:35:15.369Z,6.68
2023-12-09T14:37:43.939Z,6.62
2023-12-09T14:40:12.430Z,6.69
2023-12-09T14:42:40.272Z,6.55
2023-12-09T14:45:10.554Z,6.58
2023-12-09T14:47:39.166Z,6.52
2023-12-09T14:50:10.024Z,6.46
2023-12-09T14:52:39.384Z,6.51
2023-12-09T14:55:08.208Z,6.48
2023-12-09T14:57:36.119Z,6.49
2023-12-09T15:00:04.719Z,6.49
2023-12-09T15:02:32.573Z,6.43
2023-12-09T15:05:00.463Z,6.41
2023-12-09T15:07:28.365Z,6.44
2023-12-09T15:09:57.650Z,6.46
2023-12-09T15:12:27.933Z,6.45
2023-12-09T15:14:57.905Z,6.45
2023-12-09T15:17:26.350Z,6.50
2023-12-09T15:19:54.398Z,6.53
2023-12-09T15:22:22.765Z,6.61
2023-12-09T15:24:50.609Z,6.60
2023-12-09T15:27:19.995Z,6.58
2023-12-09T15:29:47.920Z,6.57
2023-12-09T15:32:15.865Z,6.58
2023-12-09T15:34:43.818Z,6.57
2023-12-09T15:37:12.073Z,6.50
2023-12-09T15:39:40.518Z,6.58
2023-12-09T15:42:08.814Z,6.58
2023-12-09T15:44:38.082Z,6.51
2023-12-09T15:47:07.549Z,6.58
2023-12-09T15:49:35.648Z,6.55
2023-12-09T15:52:03.681Z,6.54
2023-12-09T15:54:31.566Z,6.51
2023-12-09T15:57:03.281Z,6.56
2023-12-09T15:59:31.554Z,6.57
2023-12-09T16:02:00.843Z,6.65
2023-12-09T16:04:28.812Z,6.62
2023-12-09T16:06:56.758Z,6.64
2023-12-09T16:09:24.640Z,6.66
2023-12-09T16:11:52.504Z,6.74
2023-12-09T16:14:20.389Z,6.74
2023-12-09T16:16:48.218Z,6.75
2023-12-09T16:19:17.465Z,6.80
2023-12-09T16:21:45.457Z,6.76
2023-12-09T16:24:13.349Z,6.71
2023-12-09T16:26:41.846Z,6.72
2023-12-09T16:29:10.476Z,6.64
2023-12-09T16:31:39.740Z,6.58
2023-12-09T16:34:07.916Z,6.70
2023-12-09T16:36:37.200Z,6.66
2023-12-09T16:39:05.225Z,6.70
2023-12-09T16:41:33.165Z,6.66
2023-12-09T16:44:01.118Z,6.74
2023-12-09T16:46:29.682Z,6.76
2023-12-09T16:48:57.805Z,6.80
2023-12-09T16:51:25.754Z,6.76
2023-12-09T16:53:54.968Z,6.74
2023-12-09T16:56:22.878Z,6.74
2023-12-09T16:58:50.708Z,6.63
2023-12-09T17:01:18.635Z,6.59
2023-12-09T17:03:47.342Z,6.55
2023-12-09T17:06:15.296Z,6.44
2023-12-09T17:08:43.208Z,6.39
2023-12-09T17:11:12.418Z,6.35
2023-12-09T17:13:40.244Z,6.23
2023-12-09T17:16:08.950Z,6.17
2023-12-09T17:18:36.970Z,6.14
2023-12-09T17:21:04.951Z,6.10
2023-12-09T17:23:33.451Z,6.06
2023-12-09T17:26:01.358Z,6.04
2023-12-09T17:28:30.870Z,6.03
2023-12-09T17:30:58.720Z,6.00
2023-12-09T17:33:26.614Z,5.93
2023-12-09T17:35:54.658Z,5.95
2023-12-09T17:38:22.757Z,5.88
2023-12-09T17:40:50.620Z,5.88
2023-12-09T17:43:19.793Z,5.83
2023-12-09T17:45:51.299Z,5.80
2023-12-09T17:48:20.698Z,5.83
2023-12-09T17:50:48.648Z,5.87
2023-12-09T17:53:20.503Z,5.82
2023-12-09T17:55:48.857Z,5.78
2023-12-09T17:58:17.103Z,5.81
2023-12-09T18:00:45.211Z,5.84
2023-12-09T18:03:14.625Z,5.85
2023-12-09T18:05:42.879Z,5.78
2023-12-09T18:08:11.108Z,5.79
2023-12-09T18:10:38.945Z,5.76
2023-12-09T18:13:06.746Z,5.75
2023-12-09T18:15:34.595Z,5.76
2023-12-09T18:18:02.479Z,5.73
2023-12-09T18:20:31.697Z,5.78
2023-12-09T18:23:00.601Z,5.78
2023-12-09T18:25:30.818Z,5.71
2023-12-09T18:27:58.818Z,5.74
2023-12-09T18:30:27.003Z,5.74
2023-12-09T18:32:56.853Z,5.80
2023-12-09T18:35:24.849Z,5.85
2023-12-09T18:37:54.219Z,5.79
2023-12-09T18:40:23.926Z,5.79
2023-12-09T18:42:52.514Z,5.80
2023-12-09T18:45:20.725Z,5.78
2023-12-09T18:47:48.721Z,5.80
2023-12-09T18:50:16.608Z,5.86
2023-12-09T18:52:44.446Z,5.89
2023-12-09T18:55:13.615Z,5.90
2023-12-09T18:57:41.779Z,5.89
2023-12-09T19:00:10.368Z,5.91
2023-12-09T19:02:38.299Z,5.87
2023-12-09T19:05:06.724Z,5.89
2023-12-09T19:07:34.901Z,5.86
2023-12-09T19:10:06.151Z,5.88
2023-12-09T19:12:35.956Z,5.92
2023-12-09T19:15:03.917Z,5.87
2023-12-09T19:17:32.410Z,5.87
2023-12-09T19:20:00.643Z,5.87
2023-12-09T19:22:28.791Z,5.86
2023-12-09T19:24:56.779Z,5.91
2023-12-09T19:27:24.876Z,5.85
2023-12-09T19:29:54.081Z,5.87
2023-12-09T19:32:21.991Z,5.87
2023-12-09T19:34:49.982Z,5.80
2023-12-09T19:37:17.902Z,5.79
2023-12-09T19:39:45.818Z,5.78
2023-12-09T19:42:13.757Z,5.76
2023-12-09T19:44:41.630Z,5.72
2023-12-09T19:47:11.359Z,5.70
2023-12-09T19:49:39.356Z,5.72
2023-12-09T19:52:07.262Z,5.67
2023-12-09T19:54:35.186Z,5.71
2023-12-09T19:57:03.078Z,5.70
2023-12-09T19:59:32.110Z,5.63
2023-12-09T20:01:59.907Z,5.62
2023-12-09T20:04:29.255Z,5.65
2023-12-09T20:06:57.419Z,5.60
2023-12-09T20:09:25.597Z,5.57
2023-12-09T20:11:53.506Z,5.58
2023-12-09T20:14:21.369Z,5.50
2023-12-09T20:16:50.370Z,5.53
2023-12-09T20:19:18.372Z,5.50
2023-12-09T20:21:50.061Z,5.42
2023-12-09T20:24:17.944Z,5.47
2023-12-09T20:26:45.857Z,5.36
2023-12-09T20:29:13.904Z,5.39
2023-12-09T20:31:43.421Z,5.38
2023-12-09T20:34:12.168Z,5.31
2023-12-09T20:36:40.392Z,5.36
2023-12-09T20:39:11.951Z,5.34
2023-12-09T20:41:39.972Z,5.31
2023-12-09T20:44:07.828Z,5.31
2023-12-09T20:46:35.723Z,5.30
2023-12-09T20:49:03.630Z,5.30
2023-12-09T20:51:31.638Z,5.33
2023-12-09T20:53:59.460Z,5.24
2023-12-09T20:56:28.997Z,5.25
2023-12-09T20:58:56.954Z,5.26
2023-12-09T21:01:24.853Z,5.24
2023-12-09T21:03:52.792Z,5.21
2023-12-09T21:06:20.766Z,5.19
2023-12-09T21:08:48.653Z,5.17
2023-12-09T21:11:22.099Z,5.25
2023-12-09T21:13:51.386Z,5.12
2023-12-09T21:16:19.611Z,5.11
2023-12-09T21:18:47.522Z,5.13
2023-12-09T21:21:15.443Z,5.13
2023-12-09T21:23:43.732Z,5.05
2023-12-09T21:26:11.556Z,5.05
2023-12-09T21:28:39.423Z,5.09
2023-12-09T21:31:12.634Z,5.06
2023-12-09T21:33:40.522Z,5.05
2023-12-09T21:36:12.854Z,5.02
2023-12-09T21:38:40.907Z,5.05
2023-12-09T21:41:09.197Z,5.05
2023-12-09T21:43:38.071Z,5.07
2023-12-09T21:46:06.445Z,5.07
2023-12-09T21:48:35.741Z,5.13
2023-12-09T21:51:06.104Z,5.08
2023-12-09T21:53:33.968Z,5.05
2023-12-09T21:56:01.852Z,5.07
2023-12-09T21:58:29.796Z,5.07
2023-12-09T22:00:57.633Z,5.09
2023-12-09T22:03:25.579Z,5.07
2023-12-09T22:05:54.881Z,5.04
2023-12-09T22:08:22.753Z,5.09
2023-12-09T22:10:50.561Z,5.14
2023-12-09T22:13:18.378Z,5.12
2023-12-09T22:15:47.301Z,5.15
2023-12-09T22:18:15.388Z,5.15
2023-12-09T22:20:43.279Z,5.06
2023-12-09T22:23:12.530Z,5.20
2023-12-09T22:25:40.401Z,5.16
2023-12-09T22:28:08.281Z,5.20
2023-12-09T22:30:36.110Z,5.16
2023-12-09T22:33:04.118Z,5.16
2023-12-09T22:35:33.073Z,5.13
2023-12-09T22:38:02.459Z,5.22
2023-12-09T22:40:31.757Z,5.11
2023-12-09T22:42:59.877Z,5.04
2023-12-09T22:45:27.747Z,5.14
2023-12-09T22:47:55.789Z,5.22
2023-12-09T22:50:23.817Z,5.13
2023-12-09T22:52:51.660Z,5.23
2023-12-09T22:55:19.514Z,5.18
2023-12-09T22:57:49.068Z,5.26
2023-12-09T23:00:28.257Z,5.22
2023-12-09T23:02:56.290Z,5.17
2023-12-09T23:05:24.941Z,5.25
2023-12-09T23:07:52.752Z,5.35
2023-12-09T23:10:20.621Z,5.22
2023-12-09T23:12:50.054Z,5.33
2023-12-09T23:15:18.100Z,5.39
2023-12-09T23:17:45.960Z,5.41
2023-12-09T23:20:13.859Z,5.43
2023-12-09T23:22:41.680Z,5.24
2023-12-09T23:25:09.969Z,5.39
2023-12-09T23:27:37.807Z,5.35
2023-12-09T23:30:09.193Z,5.50
2023-12-09T23:32:37.131Z,5.44
2023-12-09T23:35:05.521Z,5.47
2023-12-09T23:37:33.892Z,5.45
2023-12-09T23:40:01.736Z,5.47
2023-12-09T23:42:29.799Z,5.57
2023-12-09T23:44:57.765Z,5.55
2023-12-09T23:47:26.960Z,5.61
2023-12-09T23:49:54.861Z,5.66
2023-12-09T23:52:23.123Z,5.73
2023-12-09T23:54:51.042Z,5.79
2023-12-09T23:57:18.939Z,5.88
2023-12-09T23:59:46.777Z,5.93
